Weather at Barstow Daggett Airport

Public forecast

Using degrees Fahrenheit for public forecast. Weather courtesy of forecast.io.

Current aviation weather report (METAR) for Barstow Daggett Airport

Retrieved 2021/08/04 05:50 UTC (52 minutes ago):

KDAG 040550Z AUTO 23009KT 10SM CLR 34/05 A2990 RMK AO2 SLP091 T03440050 10439 20344 51019

Aviation forecast (TAF) for Barstow Daggett Airport

Retrieved 2021/08/04 06:22 UTC (20 minutes ago):

TAF KDAG 040520Z 0406/0506 27009KT P6SM SKC FM041600 31007KT P6SM SKC FM042000 VRB06KT P6SM SKC FM050100 25011KT P6SM SKC